Aviation WX

[Source: ADDS]
METAR
KDUJ 272153Z AUTO 28008KT 10SM CLR 29/14 A2997 RMK AO2 SLP134 T02890144 =
TAF
KDUJ 271720Z 2718/2818 24005KT P6SM SCT040 FM280800 27003KT 3SM BR SCT010 FM281300 28005KT P6SM BKN010 FM281500 28007KT P6SM BKN035 =